Aérodrome :
LOGIN :

S'inscrire | Disclaimer

   EN    FR    IT 

 










Légende :    VFR   VFR Marginal   IFR   IFR Intensif   IFR Très Intensif
Visi : 
Plafond : 
>= 8 km
>= 3000ft
5 à 8 km
1000 à 3000 ft
1500m à 5 km
500 à 1000 ft
800 à 1500m
200 à 500 ft
< 800m
< 200 ft
Symboles :   Orages  Brouillard  Fortes neiges  Fortes précipitations  Vent > 20 kt
SIGMETs :   Divers  Orages  Givrage  Turbulence  Onde Orograph.  Cendres Volcan.






- Altitude de l'aérodrome : 2096 ft
- Code IATA : AUR


LFLW - Aurillac

DERNIER METAR :
  • 182000Z AUTO 28005KT 250V320 9999 FEW030 BKN040 OVC049 08/06 Q1020

METARs EXPIRÉS :
  • 181930Z AUTO 29005KT 250V320 9999 FEW031 BKN040 OVC048 08/06 Q1020
  • 181900Z AUTO 29005KT 260V320 9999 OVC039 08/06 Q1019
  • 181830Z AUTO 30005KT 260V330 9999 FEW029 SCT043 OVC049 08/05 Q1019
  • 181800Z AUTO 30005KT 270V330 9999 BKN044 09/06 Q1018
  • 181730Z AUTO 33007KT 290V360 9999 FEW020 SCT029 OVC038 10/06 Q1018

TAF TAF LFLW
Valide du 18 à 15h jusqu'au 19 à 00h UTC


181400Z 1815/1824 32005KT 9999 FEW020TCU BKN040
PROB40
TEMPO 1815/1818 4000 SHRA
BECMG 1818/1820 BKN008
TEMPO 1818/1824 SCT010 BKN030



MET'MAP, la Météo Aéronautique d'un coup d'oeil ! - Copyright ORBIFLY Décembre 2007 - Disclaimer

ORBIFLY MET'MAP TEAM :

Programmation & Développement : Alexandra Zaïnal
Sur une idée originale de : Baudouin d'Aumeries
Assistance à la programmation : Marc-Olivier Méhu
Soutien technique & logistique : Manuel Goepfert

Contact : metmap@orbifly.com




SOURCES & CREDITS :

   NOAA